Time;durP1;ratioP1;P1;durP2;ratioP2;P2;SDS_P1;SDS_P2;PMS_P1;PMS_P2;Temp;Humidity;BMP_temperature;BMP_pressure;BME280_temperature;BME280_humidity;BME280_pressure;Samples;Min_cycle;Max_cycle;Signal;HPM_P1;HPM_P2
2022/03/11 00:01:54;;;;;;;7.28;4.65;;;5.70;99.90;;;;;;5058175;28;20091;-72
2022/03/11 00:04:20;;;;;;;8.73;5.13;;;5.70;99.90;;;;;;5042061;28;20258;-73
2022/03/11 00:07:05;;;;;;;9.90;6.32;;;5.70;99.90;;;;;;5046978;28;20102;-72
2022/03/11 00:09:30;;;;;;;8.50;5.15;;;5.60;99.90;;;;;;5066042;28;20071;-72
2022/03/11 00:11:56;;;;;;;9.48;5.88;;;5.60;99.90;;;;;;5058346;28;20040;-72
2022/03/11 00:14:22;;;;;;;9.35;5.53;;;5.50;99.90;;;;;;5047576;28;20036;-73
2022/03/11 00:16:47;;;;;;;12.13;6.22;;;5.50;99.90;;;;;;5048141;28;20040;-72
2022/03/11 00:19:13;;;;;;;10.02;5.43;;;5.40;99.90;;;;;;5064919;28;20029;-72
2022/03/11 00:21:39;;;;;;;10.27;5.93;;;5.40;99.90;;;;;;5081602;28;20210;-72
2022/03/11 00:24:04;;;;;;;8.93;5.03;;;5.40;99.90;;;;;;5063996;28;20055;-71
2022/03/11 00:26:32;;;;;;;11.13;5.97;;;5.40;99.90;;;;;;5048381;28;20075;-72
2022/03/11 00:28:58;;;;;;;9.10;4.85;;;5.40;99.90;;;;;;5064607;28;20337;-72
2022/03/11 00:31:25;;;;;;;10.00;5.93;;;5.40;99.90;;;;;;5081581;28;20052;-72
2022/03/11 00:33:50;;;;;;;9.45;5.75;;;5.40;99.90;;;;;;5081066;28;20040;-72
2022/03/11 00:36:16;;;;;;;10.35;6.05;;;5.40;99.90;;;;;;5062923;28;20078;-73
2022/03/11 00:38:42;;;;;;;8.55;4.97;;;5.40;99.90;;;;;;5064743;28;20303;-74
2022/03/11 00:41:08;;;;;;;7.32;4.55;;;5.30;99.90;;;;;;5081278;28;20037;-73
2022/03/11 00:43:34;;;;;;;8.80;5.82;;;5.30;99.90;;;;;;5063886;28;20206;-72
2022/03/11 00:45:59;;;;;;;9.30;5.60;;;5.30;99.90;;;;;;5046735;28;20052;-72
2022/03/11 00:48:25;;;;;;;9.40;5.25;;;5.30;99.90;;;;;;5064301;28;20052;-73
2022/03/11 00:50:51;;;;;;;9.60;5.90;;;5.30;99.90;;;;;;5064270;28;20070;-74
2022/03/11 00:53:16;;;;;;;9.30;5.72;;;5.20;99.90;;;;;;5081018;28;20036;-73
2022/03/11 00:55:42;;;;;;;11.02;6.20;;;5.20;99.90;;;;;;5063537;28;20048;-74
2022/03/11 00:58:08;;;;;;;9.07;5.43;;;5.20;99.90;;;;;;5080943;28;20039;-73
2022/03/11 01:00:33;;;;;;;8.00;5.22;;;5.20;99.90;;;;;;5047587;28;20120;-72
2022/03/11 01:02:59;;;;;;;9.70;5.63;;;5.20;99.90;;;;;;5063952;28;20064;-73
2022/03/11 01:05:25;;;;;;;10.25;5.68;;;5.10;99.90;;;;;;5069702;28;20043;-73
2022/03/11 01:07:52;;;;;;;11.85;6.82;;;5.10;99.90;;;;;;5047452;28;20111;-74
2022/03/11 01:10:18;;;;;;;11.15;6.72;;;5.10;99.90;;;;;;5047592;28;20111;-73
2022/03/11 01:12:44;;;;;;;11.23;6.75;;;5.00;99.90;;;;;;5065184;28;20058;-75
2022/03/11 01:15:11;;;;;;;9.35;6.22;;;5.00;99.90;;;;;;5046954;28;20364;-73
2022/03/11 01:17:38;;;;;;;11.23;6.70;;;5.00;99.90;;;;;;5047211;28;20557;-72
2022/03/11 01:20:05;;;;;;;9.18;5.70;;;4.90;99.90;;;;;;5046927;28;20052;-73
2022/03/11 01:22:32;;;;;;;11.77;7.25;;;4.90;99.90;;;;;;5047229;28;20076;-73
2022/03/11 01:24:58;;;;;;;10.70;6.82;;;4.90;99.90;;;;;;5063240;28;20304;-73
2022/03/11 01:27:24;;;;;;;10.48;6.07;;;4.90;99.90;;;;;;5063593;28;20342;-72
2022/03/11 01:29:49;;;;;;;11.10;7.43;;;4.90;99.90;;;;;;5080223;28;20107;-72
2022/03/11 01:32:16;;;;;;;11.57;7.60;;;4.90;99.90;;;;;;5080144;28;20079;-72
2022/03/11 01:34:41;;;;;;;12.55;7.68;;;4.90;99.90;;;;;;5064905;28;20055;-73
2022/03/11 01:37:07;;;;;;;14.80;9.20;;;4.90;99.90;;;;;;5053380;28;20056;-73
2022/03/11 01:39:33;;;;;;;13.30;8.27;;;4.90;99.90;;;;;;5064265;28;20326;-73
2022/03/11 01:41:59;;;;;;;15.00;8.25;;;4.90;99.90;;;;;;5046626;28;20267;-73
2022/03/11 01:44:26;;;;;;;12.27;8.20;;;4.80;99.90;;;;;;5063480;28;20128;-73
2022/03/11 01:46:52;;;;;;;13.95;7.63;;;4.80;99.90;;;;;;5063005;28;20051;-73
2022/03/11 01:49:18;;;;;;;12.05;8.32;;;4.70;99.90;;;;;;5063370;28;20084;-73
2022/03/11 01:51:44;;;;;;;15.77;9.35;;;4.70;99.90;;;;;;5063386;28;20115;-73
2022/03/11 01:54:11;;;;;;;14.13;7.40;;;4.60;99.90;;;;;;5046146;28;20056;-73
2022/03/11 01:56:37;;;;;;;13.55;8.70;;;4.70;99.90;;;;;;5063312;28;20033;-73
2022/03/11 01:59:04;;;;;;;15.00;9.23;;;4.70;99.90;;;;;;5049382;28;20114;-73
2022/03/11 02:01:30;;;;;;;14.35;8.75;;;4.70;99.90;;;;;;5063807;28;20060;-73
2022/03/11 02:03:59;;;;;;;14.77;9.40;;;4.60;99.90;;;;;;5046297;28;20040;-73
2022/03/11 02:06:26;;;;;;;13.60;8.02;;;4.60;99.90;;;;;;5062990;28;20322;-73
2022/03/11 02:08:53;;;;;;;15.02;9.20;;;4.60;99.90;;;;;;5063280;28;20056;-73
2022/03/11 02:11:19;;;;;;;17.52;10.13;;;4.50;99.90;;;;;;5079804;28;20048;-73
2022/03/11 02:13:56;;;;;;;16.90;9.65;;;4.60;99.90;;;;;;5079533;28;20040;-73
2022/03/11 02:16:30;;;;;;;18.65;10.00;;;4.50;99.90;;;;;;5078897;28;20154;-73
2022/03/11 02:18:58;;;;;;;16.17;10.20;;;4.50;99.90;;;;;;5079509;28;20047;-73
2022/03/11 02:21:26;;;;;;;14.80;9.32;;;4.50;99.90;;;;;;5062858;28;20338;-73
2022/03/11 02:23:57;;;;;;;17.77;10.57;;;4.50;99.90;;;;;;5079511;28;20028;-73
2022/03/11 02:26:25;;;;;;;18.60;9.93;;;4.50;99.90;;;;;;5079362;28;20083;-73
2022/03/11 02:28:53;;;;;;;12.93;6.47;;;4.50;99.90;;;;;;5064659;28;20137;-74
2022/03/11 02:31:20;;;;;;;17.25;9.55;;;4.50;99.90;;;;;;5047511;28;20258;-74
2022/03/11 02:33:46;;;;;;;16.65;9.82;;;4.50;99.90;;;;;;5046200;28;20078;-74
2022/03/11 02:36:11;;;;;;;15.02;9.00;;;4.50;99.90;;;;;;5062421;28;20049;-74
2022/03/11 02:38:38;;;;;;;14.45;9.00;;;4.50;99.90;;;;;;5062814;28;20055;-73
2022/03/11 02:41:04;;;;;;;18.50;11.10;;;4.50;99.90;;;;;;5062436;28;20104;-73
2022/03/11 02:43:30;;;;;;;21.45;12.07;;;4.50;99.90;;;;;;5062558;28;20196;-74
2022/03/11 02:45:56;;;;;;;22.17;11.80;;;4.50;99.90;;;;;;5062507;28;20074;-74
2022/03/11 02:48:21;;;;;;;18.95;10.65;;;4.50;99.90;;;;;;5042722;28;20032;-73
2022/03/11 02:50:47;;;;;;;20.33;11.43;;;4.50;99.90;;;;;;5042642;28;20041;-73
2022/03/11 02:53:13;;;;;;;17.92;9.80;;;4.40;99.90;;;;;;5042385;28;20083;-74
2022/03/11 02:55:39;;;;;;;19.45;11.35;;;4.40;99.90;;;;;;5059080;28;20052;-74
2022/03/11 02:58:05;;;;;;;19.60;12.40;;;4.40;99.90;;;;;;5045263;28;20164;-73
2022/03/11 03:00:31;;;;;;;23.92;12.77;;;4.50;99.90;;;;;;5047229;28;20065;-73
2022/03/11 03:02:57;;;;;;;24.20;12.80;;;4.40;99.90;;;;;;5045688;28;20044;-73
2022/03/11 03:05:23;;;;;;;24.77;14.50;;;4.40;99.90;;;;;;5062265;28;20079;-73
2022/03/11 03:07:48;;;;;;;21.48;12.70;;;4.40;99.90;;;;;;5045742;28;20330;-73
2022/03/11 03:10:15;;;;;;;18.23;11.15;;;4.30;99.90;;;;;;5049652;28;20040;-72
2022/03/11 03:12:41;;;;;;;22.05;13.13;;;4.40;99.90;;;;;;5066473;28;20076;-72
2022/03/11 03:15:08;;;;;;;21.92;14.18;;;4.30;99.90;;;;;;5065968;28;20049;-73
2022/03/11 03:17:35;;;;;;;17.73;11.25;;;4.30;99.90;;;;;;5066072;28;20036;-72
2022/03/11 03:20:01;;;;;;;20.60;12.60;;;4.30;99.90;;;;;;5049296;28;20060;-72
2022/03/11 03:22:27;;;;;;;21.20;12.80;;;4.40;99.90;;;;;;5065929;28;20042;-73
2022/03/11 03:24:53;;;;;;;20.02;13.13;;;4.30;99.90;;;;;;5049149;28;20044;-73
2022/03/11 03:27:19;;;;;;;22.55;13.20;;;4.20;99.90;;;;;;5049797;28;20080;-73
2022/03/11 03:29:45;;;;;;;22.90;12.63;;;4.50;99.90;;;;;;5066032;28;20048;-73
2022/03/11 03:32:10;;;;;;;22.73;13.50;;;4.20;99.90;;;;;;5049144;28;20040;-73
2022/03/11 03:34:37;;;;;;;21.25;13.50;;;4.10;99.90;;;;;;5065986;28;20032;-73
2022/03/11 03:37:07;;;;;;;26.38;12.70;;;4.10;99.90;;;;;;5032520;28;20048;-73
2022/03/11 03:39:36;;;;;;;23.25;13.45;;;4.10;99.90;;;;;;5048928;28;20037;-73
2022/03/11 03:42:03;;;;;;;19.85;10.75;;;4.10;99.90;;;;;;5065579;28;20059;-73
2022/03/11 03:44:29;;;;;;;17.90;9.70;;;4.20;99.90;;;;;;5082350;28;20103;-72
2022/03/11 03:46:54;;;;;;;25.38;13.93;;;4.20;99.90;;;;;;5082205;28;20416;-73
2022/03/11 03:49:20;;;;;;;20.60;12.90;;;4.10;99.90;;;;;;5066203;28;20075;-72
2022/03/11 03:51:46;;;;;;;24.25;14.88;;;4.00;99.90;;;;;;5081795;28;20067;-72
2022/03/11 03:54:12;;;;;;;21.35;12.88;;;4.00;99.90;;;;;;5065420;28;20077;-72
2022/03/11 03:56:40;;;;;;;22.45;12.73;;;4.10;99.90;;;;;;5065506;28;20044;-72
2022/03/11 03:59:07;;;;;;;19.90;11.65;;;4.10;99.90;;;;;;5081643;28;20079;-73
2022/03/11 04:01:34;;;;;;;27.10;15.35;;;4.00;99.90;;;;;;5071091;28;20388;-72
2022/03/11 04:04:01;;;;;;;22.00;13.15;;;4.00;99.90;;;;;;5048480;28;20254;-73
2022/03/11 04:06:28;;;;;;;23.17;13.10;;;3.90;99.90;;;;;;5048542;28;20222;-74
2022/03/11 04:08:56;;;;;;;21.55;13.13;;;3.90;99.90;;;;;;5048801;28;20089;-74
2022/03/11 04:11:26;;;;;;;24.15;14.20;;;3.90;99.90;;;;;;5055192;28;20045;-74
2022/03/11 04:13:52;;;;;;;23.48;14.57;;;3.90;99.90;;;;;;5081913;28;20075;-74
2022/03/11 04:16:18;;;;;;;22.75;13.20;;;3.90;99.90;;;;;;5081656;28;20048;-74
2022/03/11 04:18:44;;;;;;;22.90;13.80;;;3.90;99.90;;;;;;5048600;28;20104;-74
2022/03/11 04:21:10;;;;;;;23.40;13.52;;;3.90;99.90;;;;;;5063359;28;20028;-74
2022/03/11 04:23:36;;;;;;;23.80;14.45;;;3.90;99.90;;;;;;5031918;28;20196;-75
2022/03/11 04:26:02;;;;;;;21.17;13.30;;;3.70;99.90;;;;;;5074295;28;20049;-74
2022/03/11 04:28:28;;;;;;;22.52;14.57;;;3.90;99.90;;;;;;5081677;28;20122;-74
2022/03/11 04:30:54;;;;;;;26.38;13.75;;;3.80;99.90;;;;;;5081451;28;20252;-73
2022/03/11 04:33:21;;;;;;;21.98;13.70;;;3.70;99.90;;;;;;5064432;28;20387;-74
2022/03/11 04:35:47;;;;;;;24.13;14.85;;;3.70;99.90;;;;;;5081363;28;20250;-74
2022/03/11 04:38:13;;;;;;;20.63;11.52;;;3.60;99.90;;;;;;5081178;28;20032;-74
2022/03/11 04:40:39;;;;;;;24.90;14.20;;;3.70;99.90;;;;;;5064355;28;20063;-74
2022/03/11 04:43:05;;;;;;;25.13;12.70;;;3.60;99.90;;;;;;5068822;28;20033;-74
2022/03/11 04:45:30;;;;;;;21.88;13.93;;;3.80;99.90;;;;;;5031275;28;20083;-74
2022/03/11 04:47:56;;;;;;;27.67;15.65;;;3.50;99.90;;;;;;5031396;28;20268;-73
2022/03/11 04:50:22;;;;;;;23.48;13.73;;;3.60;99.90;;;;;;5047835;28;20111;-74
2022/03/11 04:52:48;;;;;;;20.88;11.10;;;3.50;99.90;;;;;;5050989;28;20136;-74
2022/03/11 04:55:16;;;;;;;24.42;15.02;;;3.50;99.90;;;;;;5044255;28;20060;-74
2022/03/11 04:57:42;;;;;;;20.42;11.10;;;3.70;99.90;;;;;;5060881;28;20087;-74
2022/03/11 05:00:09;;;;;;;25.17;14.73;;;3.50;99.90;;;;;;5043900;28;20045;-74
2022/03/11 05:02:35;;;;;;;24.83;15.00;;;3.50;99.90;;;;;;5065483;28;20279;-74
2022/03/11 05:05:08;;;;;;;25.77;14.93;;;3.50;99.90;;;;;;5080394;28;20040;-74
2022/03/11 05:07:34;;;;;;;25.90;14.73;;;3.40;99.90;;;;;;5081248;28;20044;-74
2022/03/11 05:10:01;;;;;;;25.10;14.15;;;3.40;99.90;;;;;;5080859;28;20040;-74
2022/03/11 05:12:27;;;;;;;23.90;13.77;;;3.40;99.90;;;;;;5080290;28;20035;-74
2022/03/11 05:14:53;;;;;;;26.60;15.68;;;3.40;99.90;;;;;;5080562;28;20227;-74
2022/03/11 05:17:19;;;;;;;23.52;14.65;;;3.40;99.90;;;;;;5079730;28;20043;-74
2022/03/11 05:19:45;;;;;;;28.05;16.67;;;3.50;99.90;;;;;;5063539;28;20036;-74
2022/03/11 05:22:11;;;;;;;25.08;14.68;;;3.40;99.90;;;;;;5080140;28;20032;-74
2022/03/11 05:24:38;;;;;;;23.15;14.85;;;3.60;99.90;;;;;;5051406;28;20098;-74
2022/03/11 05:27:04;;;;;;;22.23;13.50;;;3.30;99.90;;;;;;5063523;28;20059;-74
2022/03/11 05:29:32;;;;;;;25.63;14.23;;;3.10;99.90;;;;;;5047364;28;20219;-74
2022/03/11 05:31:58;;;;;;;23.15;13.65;;;3.30;99.90;;;;;;5030354;28;20062;-73
2022/03/11 05:34:24;;;;;;;23.38;14.05;;;3.20;99.90;;;;;;5035265;28;20048;-73
2022/03/11 05:36:50;;;;;;;22.02;12.75;;;3.20;99.90;;;;;;5060328;28;20348;-74
2022/03/11 05:39:15;;;;;;;24.15;12.45;;;3.20;99.90;;;;;;5059961;28;20533;-74
2022/03/11 05:41:42;;;;;;;25.80;14.48;;;3.30;99.90;;;;;;5059922;28;20081;-74
2022/03/11 05:44:08;;;;;;;21.75;13.23;;;3.00;99.90;;;;;;5062969;28;20029;-74
2022/03/11 05:46:35;;;;;;;23.48;14.55;;;3.00;99.90;;;;;;5063339;28;20082;-74
2022/03/11 05:49:00;;;;;;;21.98;12.52;;;3.10;99.90;;;;;;5063487;28;20053;-73
2022/03/11 05:51:26;;;;;;;24.10;14.32;;;3.20;99.90;;;;;;5063312;28;20235;-73
2022/03/11 05:53:52;;;;;;;21.35;12.38;;;3.60;99.90;;;;;;5029444;28;20323;-73
2022/03/11 05:56:17;;;;;;;23.98;12.43;;;3.20;99.90;;;;;;5062478;28;20044;-74
2022/03/11 05:58:43;;;;;;;24.65;15.00;;;3.10;99.90;;;;;;5079224;28;20051;-74
2022/03/11 06:01:09;;;;;;;23.77;13.23;;;3.00;99.90;;;;;;5061961;28;20044;-73
2022/03/11 06:03:34;;;;;;;20.52;12.50;;;3.10;99.90;;;;;;5079417;28;20318;-74
2022/03/11 06:06:00;;;;;;;16.73;9.93;;;3.70;99.90;;;;;;5042029;28;20052;-74
2022/03/11 06:08:26;;;;;;;22.27;13.75;;;3.10;99.90;;;;;;5075694;28;20064;-74
2022/03/11 06:10:52;;;;;;;21.63;12.07;;;3.10;99.90;;;;;;5042775;28;20103;-74
2022/03/11 06:13:17;;;;;;;23.60;13.27;;;3.20;99.90;;;;;;5058724;28;20251;-74
2022/03/11 06:15:43;;;;;;;21.73;12.23;;;3.20;99.90;;;;;;5061486;28;20262;-73
2022/03/11 06:18:12;;;;;;;23.83;13.32;;;3.20;99.90;;;;;;5045540;28;20040;-73
2022/03/11 06:20:38;;;;;;;19.90;11.75;;;3.10;99.90;;;;;;5045459;28;20041;-73
2022/03/11 06:23:04;;;;;;;21.00;11.45;;;3.20;99.90;;;;;;5028760;28;20473;-74
2022/03/11 06:25:29;;;;;;;19.25;12.50;;;3.20;99.90;;;;;;5048236;28;20099;-74
2022/03/11 06:27:55;;;;;;;19.67;11.57;;;3.20;99.90;;;;;;5078990;28;20270;-73
2022/03/11 06:30:21;;;;;;;19.75;12.50;;;3.10;99.90;;;;;;5078587;28;20040;-73
2022/03/11 06:32:48;;;;;;;23.30;13.50;;;3.20;99.90;;;;;;5045400;28;20076;-73
2022/03/11 06:35:15;;;;;;;21.08;12.00;;;3.20;99.90;;;;;;5077957;28;20222;-73
2022/03/11 06:37:43;;;;;;;23.13;11.88;;;3.20;99.90;;;;;;5078900;28;20040;-72
2022/03/11 06:40:10;;;;;;;23.40;12.05;;;3.20;99.90;;;;;;5078810;28;20357;-72
2022/03/11 06:42:41;;;;;;;24.45;12.43;;;3.30;99.90;;;;;;5062312;28;20032;-74
2022/03/11 06:45:08;;;;;;;22.52;12.20;;;3.30;99.90;;;;;;5065227;28;20116;-73
2022/03/11 06:47:34;;;;;;;24.02;11.88;;;3.50;99.90;;;;;;5051880;28;20238;-73
2022/03/11 06:50:00;;;;;;;21.77;11.85;;;3.70;99.90;;;;;;5050109;28;20044;-73
2022/03/11 06:52:26;;;;;;;20.42;12.65;;;3.60;99.90;;;;;;5065765;28;20112;-73
2022/03/11 06:54:51;;;;;;;13.80;8.80;;;3.70;99.90;;;;;;5049611;28;20231;-73
2022/03/11 06:57:17;;;;;;;20.42;11.25;;;3.80;99.90;;;;;;5048608;28;20318;-73
2022/03/11 06:59:44;;;;;;;24.60;11.65;;;3.80;99.90;;;;;;5049055;28;20070;-74
2022/03/11 07:02:10;;;;;;;23.05;12.30;;;3.90;99.90;;;;;;5049026;28;20327;-74
2022/03/11 07:04:36;;;;;;;21.73;12.88;;;4.00;99.90;;;;;;5049159;28;20111;-74
2022/03/11 07:07:02;;;;;;;16.50;9.82;;;4.10;99.90;;;;;;5068484;28;20062;-74
2022/03/11 07:09:27;;;;;;;21.50;10.75;;;4.00;99.90;;;;;;5065569;28;20230;-73
2022/03/11 07:11:57;;;;;;;15.15;10.55;;;4.10;99.90;;;;;;5065889;28;20047;-73
2022/03/11 07:14:29;;;;;;;18.65;10.25;;;4.10;99.90;;;;;;5066234;28;20056;-74
2022/03/11 07:16:56;;;;;;;21.90;12.73;;;4.20;99.90;;;;;;5065285;28;20044;-72
2022/03/11 07:19:28;;;;;;;18.05;9.65;;;4.20;99.90;;;;;;5065815;28;20095;-73
2022/03/11 07:21:55;;;;;;;15.50;9.55;;;4.30;99.90;;;;;;5064976;28;20036;-73
2022/03/11 07:24:22;;;;;;;19.58;10.68;;;4.30;99.90;;;;;;5032244;28;20036;-73
2022/03/11 07:26:47;;;;;;;17.02;10.95;;;4.40;99.90;;;;;;5082248;28;20036;-74
2022/03/11 07:29:13;;;;;;;17.17;10.63;;;4.50;99.90;;;;;;5050235;28;20075;-73
2022/03/11 07:31:39;;;;;;;18.60;11.73;;;4.40;99.90;;;;;;5065429;28;20048;-74
2022/03/11 07:34:05;;;;;;;17.30;10.00;;;4.50;99.90;;;;;;5065440;28;20044;-74
2022/03/11 07:36:34;;;;;;;17.38;9.52;;;4.60;99.90;;;;;;5048532;28;20112;-73
2022/03/11 07:39:07;;;;;;;19.23;11.43;;;4.60;99.90;;;;;;5066098;28;20044;-74
2022/03/11 07:41:34;;;;;;;19.25;10.55;;;4.70;99.90;;;;;;5065107;28;20044;-74
2022/03/11 07:44:01;;;;;;;20.05;9.75;;;4.70;99.90;;;;;;5066080;28;20048;-74
2022/03/11 07:46:28;;;;;;;18.10;10.80;;;4.70;99.90;;;;;;5047765;28;20059;-74
2022/03/11 07:48:57;;;;;;;16.90;10.35;;;4.80;99.90;;;;;;5028383;28;20037;-74
2022/03/11 07:51:29;;;;;;;20.02;10.45;;;4.80;99.90;;;;;;5063656;28;20281;-75
2022/03/11 07:54:15;;;;;;;18.85;10.85;;;4.80;99.90;;;;;;5064387;28;20072;-72
2022/03/11 07:56:41;;;;;;;15.65;9.55;;;4.90;99.90;;;;;;5048098;28;20047;-73
2022/03/11 07:59:07;;;;;;;20.25;11.98;;;4.80;99.90;;;;;;5048082;28;20059;-73
2022/03/11 08:01:33;;;;;;;14.70;8.68;;;5.00;99.90;;;;;;5057813;28;20036;-74
2022/03/11 08:03:59;;;;;;;18.38;12.10;;;5.10;99.90;;;;;;5060583;28;20045;-73
2022/03/11 08:06:25;;;;;;;19.05;10.63;;;5.10;99.90;;;;;;5011894;28;20047;-74
2022/03/11 08:08:51;;;;;;;14.45;8.70;;;5.20;99.90;;;;;;5027681;28;20079;-73
2022/03/11 08:11:16;;;;;;;20.83;12.32;;;5.20;99.90;;;;;;5060585;28;20033;-73
2022/03/11 08:13:42;;;;;;;19.45;11.77;;;5.30;99.90;;;;;;5027890;28;20049;-71
2022/03/11 08:16:11;;;;;;;18.15;10.10;;;5.30;99.90;;;;;;5048604;28;20272;-72
2022/03/11 08:18:36;;;;;;;20.95;10.73;;;5.50;99.90;;;;;;5031481;28;20196;-73
2022/03/11 08:21:03;;;;;;;17.08;9.73;;;5.50;99.90;;;;;;5047892;28;20125;-73
2022/03/11 08:23:30;;;;;;;17.75;10.52;;;5.50;99.90;;;;;;5046990;28;20032;-74
2022/03/11 08:25:56;;;;;;;15.90;9.55;;;5.70;99.90;;;;;;5047252;28;20036;-74
2022/03/11 08:28:22;;;;;;;19.52;11.57;;;5.60;99.90;;;;;;5064050;28;20036;-72
2022/03/11 08:30:48;;;;;;;19.63;11.30;;;6.00;99.90;;;;;;5064339;28;20051;-73
2022/03/11 08:33:20;;;;;;;19.92;10.63;;;5.80;99.90;;;;;;5079981;28;20081;-73
2022/03/11 08:35:50;;;;;;;21.20;12.88;;;5.90;99.90;;;;;;5080609;28;20055;-73
2022/03/11 08:38:19;;;;;;;19.58;12.02;;;5.90;99.90;;;;;;5046915;28;20298;-74
2022/03/11 08:40:45;;;;;;;19.95;11.57;;;6.10;99.90;;;;;;5064185;28;20040;-75
2022/03/11 08:43:11;;;;;;;17.23;10.43;;;6.20;99.90;;;;;;5064074;28;20108;-75
2022/03/11 08:45:37;;;;;;;23.42;12.38;;;6.20;99.90;;;;;;5062895;28;20338;-74
2022/03/11 08:48:03;;;;;;;26.38;12.32;;;6.30;99.90;;;;;;5064161;28;20056;-73
2022/03/11 08:50:28;;;;;;;21.80;12.63;;;6.40;99.90;;;;;;5080155;28;20059;-73
2022/03/11 08:52:54;;;;;;;16.80;9.98;;;6.50;99.90;;;;;;5063789;28;20067;-73
2022/03/11 08:55:20;;;;;;;16.05;9.73;;;6.40;99.90;;;;;;5062353;28;20040;-73
2022/03/11 08:57:49;;;;;;;17.35;10.30;;;6.50;99.90;;;;;;5063637;28;20045;-73
2022/03/11 09:00:16;;;;;;;19.45;11.60;;;6.40;99.90;;;;;;5055780;28;20052;-73
2022/03/11 09:02:44;;;;;;;22.15;11.20;;;6.50;99.90;;;;;;5082262;28;20297;-73
2022/03/11 09:05:11;;;;;;;19.67;10.88;;;6.70;99.90;;;;;;5060880;28;20066;-72
2022/03/11 09:07:36;;;;;;;19.75;11.30;;;6.60;99.90;;;;;;5062198;28;20078;-74
2022/03/11 09:10:09;;;;;;;17.02;9.63;;;6.80;99.90;;;;;;5063475;28;20044;-74
2022/03/11 09:12:36;;;;;;;19.90;10.85;;;6.70;99.90;;;;;;5059652;28;20049;-74
2022/03/11 09:15:02;;;;;;;18.95;11.63;;;6.90;99.90;;;;;;5043663;28;20053;-74
2022/03/11 09:17:28;;;;;;;18.85;11.38;;;7.20;99.90;;;;;;5059624;28;20044;-78
2022/03/11 09:19:54;;;;;;;19.13;9.73;;;7.50;99.90;;;;;;5059871;28;20064;-74
2022/03/11 09:22:21;;;;;;;16.20;10.65;;;7.40;99.90;;;;;;5029171;28;20100;-74
2022/03/11 09:24:47;;;;;;;17.70;10.98;;;7.30;99.90;;;;;;5052602;28;20097;-74
2022/03/11 09:27:13;;;;;;;18.48;11.27;;;7.40;99.90;;;;;;5062808;28;20075;-74
2022/03/11 09:29:39;;;;;;;17.25;10.98;;;8.30;99.90;;;;;;5079396;28;20411;-74
2022/03/11 09:32:07;;;;;;;18.50;11.77;;;7.60;99.90;;;;;;5063504;28;20094;-74
2022/03/11 09:34:33;;;;;;;18.40;12.13;;;8.00;99.90;;;;;;5079593;28;20044;-74
2022/03/11 09:37:00;;;;;;;16.98;11.43;;;7.90;99.90;;;;;;5046157;28;20051;-74
2022/03/11 09:39:27;;;;;;;22.20;13.23;;;7.90;98.90;;;;;;5056462;28;20032;-74
2022/03/11 09:41:53;;;;;;;19.67;11.82;;;7.50;97.50;;;;;;5046409;28;20044;-73
2022/03/11 09:44:20;;;;;;;23.65;13.95;;;7.80;98.40;;;;;;5046404;28;20056;-74
2022/03/11 09:46:46;;;;;;;17.40;9.82;;;7.60;97.50;;;;;;5030104;28;20075;-74
2022/03/11 09:49:13;;;;;;;22.08;11.77;;;7.70;97.60;;;;;;5063446;28;20261;-74
2022/03/11 09:51:41;;;;;;;19.90;10.57;;;8.00;98.30;;;;;;5062514;28;20036;-74
2022/03/11 09:54:10;;;;;;;22.42;14.77;;;8.20;97.30;;;;;;5061218;28;20102;-74
2022/03/11 09:56:40;;;;;;;17.90;12.02;;;8.10;96.20;;;;;;5061782;28;20051;-74
2022/03/11 09:59:07;;;;;;;17.20;10.48;;;8.40;96.40;;;;;;5079775;28;20043;-75
2022/03/11 10:01:33;;;;;;;13.75;9.48;;;8.70;94.10;;;;;;5061634;28;20060;-75
2022/03/11 10:04:06;;;;;;;18.98;11.82;;;8.40;93.60;;;;;;5034054;28;20041;-75
2022/03/11 10:06:39;;;;;;;19.70;14.05;;;8.60;93.10;;;;;;5053918;28;20222;-75
2022/03/11 10:09:18;;;;;;;19.08;12.43;;;8.60;91.20;;;;;;5060676;28;20046;-75
2022/03/11 10:11:49;;;;;;;16.33;11.80;;;8.90;92.30;;;;;;5047150;28;20267;-74
2022/03/11 10:14:16;;;;;;;20.73;11.93;;;9.20;87.20;;;;;;5063057;28;20047;-75
2022/03/11 10:16:46;;;;;;;16.65;9.90;;;9.20;87.40;;;;;;5070983;28;20086;-75
2022/03/11 10:19:13;;;;;;;16.23;10.68;;;9.10;85.30;;;;;;5058583;28;20219;-74
2022/03/11 10:21:45;;;;;;;17.42;11.35;;;9.00;83.90;;;;;;5063245;28;20047;-74
2022/03/11 10:24:16;;;;;;;19.05;12.60;;;9.10;83.90;;;;;;5042960;28;20075;-73
2022/03/11 10:26:47;;;;;;;20.15;10.07;;;9.20;84.30;;;;;;5071401;28;20267;-74
2022/03/11 10:29:18;;;;;;;19.98;13.10;;;9.20;81.10;;;;;;5078052;28;20037;-73
2022/03/11 10:31:45;;;;;;;18.13;10.23;;;9.10;78.80;;;;;;5077951;28;20302;-73
2022/03/11 10:34:18;;;;;;;15.85;11.27;;;9.10;79.70;;;;;;5049509;28;20132;-74
2022/03/11 10:36:55;;;;;;;14.85;9.23;;;9.50;79.40;;;;;;5073252;28;20102;-75
2022/03/11 10:39:26;;;;;;;18.38;12.07;;;9.40;76.70;;;;;;5041901;28;20036;-75
2022/03/11 10:42:12;;;;;;;15.77;9.38;;;9.10;76.50;;;;;;5062029;28;20044;-75
2022/03/11 10:45:03;;;;;;;15.82;10.20;;;8.90;76.80;;;;;;5047599;28;20044;-75
2022/03/11 10:47:33;;;;;;;16.30;12.32;;;9.00;77.40;;;;;;5075384;28;20060;-75
2022/03/11 10:50:05;;;;;;;17.00;12.10;;;9.10;77.30;;;;;;5044476;28;20427;-75
2022/03/11 10:52:41;;;;;;;17.75;10.88;;;9.50;77.20;;;;;;5069326;28;20075;-75
2022/03/11 10:55:23;;;;;;;17.83;10.40;;;9.40;78.10;;;;;;5046014;28;20044;-76
2022/03/11 10:57:55;;;;;;;16.88;11.45;;;9.40;75.30;;;;;;5062305;28;20036;-76
2022/03/11 11:00:25;;;;;;;17.38;12.02;;;9.40;75.60;;;;;;5045289;28;20048;-75
2022/03/11 11:02:53;;;;;;;16.05;10.02;;;9.40;74.20;;;;;;5053146;28;20056;-76
2022/03/11 11:05:20;;;;;;;14.80;9.52;;;9.30;73.70;;;;;;5045054;28;20215;-75
2022/03/11 11:07:46;;;;;;;17.55;11.65;;;9.50;74.50;;;;;;5045343;28;20222;-75
2022/03/11 11:10:22;;;;;;;15.85;10.82;;;9.40;73.80;;;;;;5045753;28;20029;-74
2022/03/11 11:12:49;;;;;;;14.68;9.48;;;9.50;75.00;;;;;;5051153;28;20226;-75
2022/03/11 11:15:17;;;;;;;14.05;9.57;;;9.60;72.20;;;;;;5062284;28;20041;-75
2022/03/11 11:17:45;;;;;;;16.85;10.63;;;9.60;71.50;;;;;;5078542;28;20040;-74
2022/03/11 11:20:29;;;;;;;18.05;10.55;;;9.50;71.80;;;;;;5057407;28;20069;-73
2022/03/11 11:22:56;;;;;;;14.98;10.07;;;9.50;70.10;;;;;;5046972;28;20056;-76
2022/03/11 11:25:23;;;;;;;12.88;8.98;;;9.70;72.50;;;;;;5045437;28;20279;-75
2022/03/11 11:27:51;;;;;;;15.70;9.75;;;9.50;69.70;;;;;;5074534;28;20067;-75
2022/03/11 11:30:20;;;;;;;15.73;9.73;;;9.50;71.20;;;;;;5040762;28;20032;-75
2022/03/11 11:32:48;;;;;;;13.52;9.10;;;9.80;70.50;;;;;;5065105;28;20029;-74
2022/03/11 11:35:56;;;;;;;15.93;10.40;;;9.60;69.10;;;;;;5075043;28;20298;-74
2022/03/11 11:38:35;;;;;;;15.13;8.88;;;9.60;69.10;;;;;;4996600;28;20071;-74
2022/03/11 11:41:23;;;;;;;17.77;10.30;;;9.80;69.80;;;;;;5062250;28;20051;-74
2022/03/11 11:43:56;;;;;;;14.38;8.57;;;9.80;69.10;;;;;;5046915;28;20052;-75
2022/03/11 11:46:22;;;;;;;14.45;8.82;;;9.80;68.00;;;;;;5076509;28;20307;-74
2022/03/11 11:48:48;;;;;;;16.45;11.02;;;9.80;67.80;;;;;;5081883;28;20067;-73
2022/03/11 11:51:22;;;;;;;17.83;11.10;;;10.10;67.10;;;;;;5063072;28;20040;-73
2022/03/11 11:53:56;;;;;;;17.77;10.67;;;10.00;66.60;;;;;;5056166;28;20096;-75
2022/03/11 11:56:32;;;;;;;14.35;9.70;;;10.10;66.40;;;;;;5080405;28;20097;-75
2022/03/11 11:59:08;;;;;;;14.05;8.85;;;10.00;64.50;;;;;;5056991;28;20045;-74
2022/03/11 12:01:49;;;;;;;15.63;10.48;;;10.20;64.60;;;;;;5074637;28;20229;-75
2022/03/11 12:04:33;;;;;;;16.63;11.52;;;10.50;65.30;;;;;;5064980;28;20045;-75
2022/03/11 12:07:28;;;;;;;14.93;9.98;;;10.60;63.90;;;;;;5046430;28;20106;-73
2022/03/11 12:10:04;;;;;;;16.13;10.23;;;10.50;63.10;;;;;;5050119;28;20048;-77
2022/03/11 12:12:43;;;;;;;16.33;11.10;;;10.60;63.80;;;;;;5043498;28;20224;-74
2022/03/11 12:15:15;;;;;;;11.60;7.97;;;10.60;63.00;;;;;;5062886;28;20056;-74
2022/03/11 12:17:41;;;;;;;17.88;11.32;;;10.70;62.50;;;;;;5068594;28;20208;-76
2022/03/11 12:20:32;;;;;;;15.90;11.00;;;10.80;62.50;;;;;;5053902;28;20095;-72
2022/03/11 12:23:03;;;;;;;12.95;9.25;;;10.80;63.00;;;;;;5064529;28;20036;-73
2022/03/11 12:25:46;;;;;;;14.18;10.38;;;10.70;61.90;;;;;;5080964;28;20040;-74
2022/03/11 12:28:17;;;;;;;21.05;12.20;;;10.90;62.40;;;;;;5069057;28;20045;-73
2022/03/11 12:30:49;;;;;;;16.83;10.15;;;11.00;61.40;;;;;;5064061;28;20175;-73
2022/03/11 12:33:20;;;;;;;11.20;7.47;;;11.00;60.80;;;;;;5064749;28;20100;-73
2022/03/11 12:35:49;;;;;;;13.43;9.63;;;10.90;59.00;;;;;;5064732;28;20158;-73
2022/03/11 12:38:17;;;;;;;13.20;9.70;;;11.20;59.70;;;;;;5062628;28;20040;-73
2022/03/11 12:40:46;;;;;;;15.90;9.88;;;11.30;59.70;;;;;;5063174;28;20246;-72
2022/03/11 12:43:13;;;;;;;15.85;8.57;;;11.40;58.30;;;;;;5079255;28;20101;-73
2022/03/11 12:45:50;;;;;;;16.23;9.60;;;11.40;58.10;;;;;;5063937;28;20233;-73